sensor_id;sensor_type;location;lat;lon;timestamp;P1;durP1;ratioP1;P2;durP2;ratioP2
2199;SDS011;1106;48.762;9.168;2022-07-21T00:00:16;36.03;;;33.37;;
2199;SDS011;1106;48.762;9.168;2022-07-21T00:02:43;38.03;;;35.10;;
2199;SDS011;1106;48.762;9.168;2022-07-21T00:05:10;35.40;;;32.77;;
2199;SDS011;1106;48.762;9.168;2022-07-21T00:07:37;35.67;;;33.07;;
2199;SDS011;1106;48.762;9.168;2022-07-21T00:10:05;37.03;;;34.20;;
2199;SDS011;1106;48.762;9.168;2022-07-21T00:12:34;39.03;;;36.30;;
2199;SDS011;1106;48.762;9.168;2022-07-21T00:15:01;38.23;;;35.73;;
2199;SDS011;1106;48.762;9.168;2022-07-21T00:17:29;39.70;;;36.70;;
2199;SDS011;1106;48.762;9.168;2022-07-21T00:19:56;40.03;;;37.10;;
2199;SDS011;1106;48.762;9.168;2022-07-21T00:22:23;40.30;;;36.73;;
2199;SDS011;1106;48.762;9.168;2022-07-21T00:24:50;38.33;;;35.63;;
2199;SDS011;1106;48.762;9.168;2022-07-21T00:27:17;37.27;;;34.87;;
2199;SDS011;1106;48.762;9.168;2022-07-21T00:29:45;37.73;;;35.13;;
2199;SDS011;1106;48.762;9.168;2022-07-21T00:32:12;38.63;;;35.57;;
2199;SDS011;1106;48.762;9.168;2022-07-21T00:34:39;36.67;;;33.90;;
2199;SDS011;1106;48.762;9.168;2022-07-21T00:37:06;36.60;;;34.07;;
2199;SDS011;1106;48.762;9.168;2022-07-21T00:39:33;36.13;;;33.83;;
2199;SDS011;1106;48.762;9.168;2022-07-21T00:42:00;36.83;;;34.40;;
2199;SDS011;1106;48.762;9.168;2022-07-21T00:44:28;36.83;;;34.10;;
2199;SDS011;1106;48.762;9.168;2022-07-21T00:46:56;35.27;;;32.70;;
2199;SDS011;1106;48.762;9.168;2022-07-21T00:49:23;36.37;;;33.57;;
2199;SDS011;1106;48.762;9.168;2022-07-21T00:51:51;36.40;;;34.03;;
2199;SDS011;1106;48.762;9.168;2022-07-21T00:54:18;35.17;;;32.70;;
2199;SDS011;1106;48.762;9.168;2022-07-21T00:56:45;35.80;;;33.40;;
2199;SDS011;1106;48.762;9.168;2022-07-21T00:59:13;35.87;;;33.53;;
2199;SDS011;1106;48.762;9.168;2022-07-21T01:01:41;35.53;;;33.10;;
2199;SDS011;1106;48.762;9.168;2022-07-21T01:04:09;35.60;;;33.00;;
2199;SDS011;1106;48.762;9.168;2022-07-21T01:06:36;35.60;;;33.30;;
2199;SDS011;1106;48.762;9.168;2022-07-21T01:09:03;37.00;;;34.47;;
2199;SDS011;1106;48.762;9.168;2022-07-21T01:11:30;33.83;;;31.53;;
2199;SDS011;1106;48.762;9.168;2022-07-21T01:13:57;34.67;;;32.33;;
2199;SDS011;1106;48.762;9.168;2022-07-21T01:16:24;34.57;;;32.17;;
2199;SDS011;1106;48.762;9.168;2022-07-21T01:18:52;34.63;;;32.23;;
2199;SDS011;1106;48.762;9.168;2022-07-21T01:21:28;34.17;;;32.07;;
2199;SDS011;1106;48.762;9.168;2022-07-21T01:23:56;35.43;;;32.83;;
2199;SDS011;1106;48.762;9.168;2022-07-21T01:26:23;35.10;;;32.60;;
2199;SDS011;1106;48.762;9.168;2022-07-21T01:28:51;33.30;;;31.23;;
2199;SDS011;1106;48.762;9.168;2022-07-21T01:31:18;34.83;;;32.43;;
2199;SDS011;1106;48.762;9.168;2022-07-21T01:33:45;35.00;;;32.63;;
2199;SDS011;1106;48.762;9.168;2022-07-21T01:36:12;35.07;;;32.87;;
2199;SDS011;1106;48.762;9.168;2022-07-21T01:38:40;35.17;;;32.87;;
2199;SDS011;1106;48.762;9.168;2022-07-21T01:41:25;33.83;;;31.53;;
2199;SDS011;1106;48.762;9.168;2022-07-21T01:43:59;33.33;;;31.00;;
2199;SDS011;1106;48.762;9.168;2022-07-21T01:46:27;34.03;;;31.70;;
2199;SDS011;1106;48.762;9.168;2022-07-21T01:48:55;32.80;;;30.60;;
2199;SDS011;1106;48.762;9.168;2022-07-21T01:51:23;31.07;;;29.17;;
2199;SDS011;1106;48.762;9.168;2022-07-21T01:53:52;32.63;;;30.53;;
2199;SDS011;1106;48.762;9.168;2022-07-21T01:56:19;31.90;;;29.90;;
2199;SDS011;1106;48.762;9.168;2022-07-21T01:58:48;32.43;;;30.43;;
2199;SDS011;1106;48.762;9.168;2022-07-21T02:01:16;32.43;;;30.40;;
2199;SDS011;1106;48.762;9.168;2022-07-21T02:03:43;32.30;;;30.20;;
2199;SDS011;1106;48.762;9.168;2022-07-21T02:06:11;33.60;;;31.30;;
2199;SDS011;1106;48.762;9.168;2022-07-21T02:08:38;32.77;;;30.67;;
2199;SDS011;1106;48.762;9.168;2022-07-21T02:11:08;40.13;;;37.07;;
2199;SDS011;1106;48.762;9.168;2022-07-21T02:13:37;33.13;;;30.93;;
2199;SDS011;1106;48.762;9.168;2022-07-21T02:16:04;32.13;;;29.93;;
2199;SDS011;1106;48.762;9.168;2022-07-21T02:18:31;32.17;;;30.27;;
2199;SDS011;1106;48.762;9.168;2022-07-21T02:20:58;31.90;;;29.90;;
2199;SDS011;1106;48.762;9.168;2022-07-21T02:23:25;33.60;;;31.40;;
2199;SDS011;1106;48.762;9.168;2022-07-21T02:25:53;32.37;;;30.20;;
2199;SDS011;1106;48.762;9.168;2022-07-21T02:28:23;30.10;;;28.10;;
2199;SDS011;1106;48.762;9.168;2022-07-21T02:30:50;34.33;;;32.23;;
2199;SDS011;1106;48.762;9.168;2022-07-21T02:33:18;33.57;;;31.13;;
2199;SDS011;1106;48.762;9.168;2022-07-21T02:35:45;37.30;;;34.30;;
2199;SDS011;1106;48.762;9.168;2022-07-21T02:38:12;38.50;;;35.43;;
2199;SDS011;1106;48.762;9.168;2022-07-21T02:40:39;36.47;;;33.77;;
2199;SDS011;1106;48.762;9.168;2022-07-21T02:43:06;32.80;;;30.50;;
2199;SDS011;1106;48.762;9.168;2022-07-21T02:45:35;31.43;;;29.27;;
2199;SDS011;1106;48.762;9.168;2022-07-21T02:48:03;30.77;;;28.77;;
2199;SDS011;1106;48.762;9.168;2022-07-21T02:50:36;32.37;;;30.27;;
2199;SDS011;1106;48.762;9.168;2022-07-21T02:53:05;31.37;;;29.23;;
2199;SDS011;1106;48.762;9.168;2022-07-21T02:55:32;31.80;;;29.50;;
2199;SDS011;1106;48.762;9.168;2022-07-21T02:58:04;32.07;;;29.97;;
2199;SDS011;1106;48.762;9.168;2022-07-21T03:00:32;31.40;;;29.50;;
2199;SDS011;1106;48.762;9.168;2022-07-21T03:03:01;30.03;;;28.00;;
2199;SDS011;1106;48.762;9.168;2022-07-21T03:05:29;32.03;;;30.00;;
2199;SDS011;1106;48.762;9.168;2022-07-21T03:07:56;31.23;;;29.30;;
2199;SDS011;1106;48.762;9.168;2022-07-21T03:10:22;31.63;;;29.53;;
2199;SDS011;1106;48.762;9.168;2022-07-21T03:12:49;33.07;;;30.97;;
2199;SDS011;1106;48.762;9.168;2022-07-21T03:15:16;30.97;;;28.87;;
2199;SDS011;1106;48.762;9.168;2022-07-21T03:17:44;32.67;;;30.27;;
2199;SDS011;1106;48.762;9.168;2022-07-21T03:20:13;31.77;;;29.80;;
2199;SDS011;1106;48.762;9.168;2022-07-21T03:22:40;32.17;;;30.07;;
2199;SDS011;1106;48.762;9.168;2022-07-21T03:25:07;31.30;;;29.37;;
2199;SDS011;1106;48.762;9.168;2022-07-21T03:27:34;32.70;;;30.70;;
2199;SDS011;1106;48.762;9.168;2022-07-21T03:30:03;32.37;;;30.37;;
2199;SDS011;1106;48.762;9.168;2022-07-21T03:32:31;33.70;;;31.70;;
2199;SDS011;1106;48.762;9.168;2022-07-21T03:34:59;32.60;;;30.50;;
2199;SDS011;1106;48.762;9.168;2022-07-21T03:37:27;32.63;;;30.57;;
2199;SDS011;1106;48.762;9.168;2022-07-21T03:39:54;33.17;;;31.10;;
2199;SDS011;1106;48.762;9.168;2022-07-21T03:42:21;35.87;;;33.63;;
2199;SDS011;1106;48.762;9.168;2022-07-21T03:44:48;33.10;;;31.10;;
2199;SDS011;1106;48.762;9.168;2022-07-21T03:47:16;34.70;;;32.33;;
2199;SDS011;1106;48.762;9.168;2022-07-21T03:49:43;31.13;;;29.10;;
2199;SDS011;1106;48.762;9.168;2022-07-21T03:52:09;30.73;;;28.83;;
2199;SDS011;1106;48.762;9.168;2022-07-21T03:54:38;30.50;;;28.70;;
2199;SDS011;1106;48.762;9.168;2022-07-21T03:57:05;31.60;;;29.50;;
2199;SDS011;1106;48.762;9.168;2022-07-21T03:59:32;31.40;;;29.60;;
2199;SDS011;1106;48.762;9.168;2022-07-21T04:01:58;31.30;;;29.07;;
2199;SDS011;1106;48.762;9.168;2022-07-21T04:04:25;32.43;;;30.43;;
2199;SDS011;1106;48.762;9.168;2022-07-21T04:06:52;30.80;;;29.00;;
2199;SDS011;1106;48.762;9.168;2022-07-21T04:09:19;31.23;;;29.23;;
2199;SDS011;1106;48.762;9.168;2022-07-21T04:11:48;32.17;;;30.17;;
2199;SDS011;1106;48.762;9.168;2022-07-21T04:14:15;32.13;;;30.03;;
2199;SDS011;1106;48.762;9.168;2022-07-21T04:16:42;31.50;;;29.60;;
2199;SDS011;1106;48.762;9.168;2022-07-21T04:19:09;33.67;;;31.67;;
2199;SDS011;1106;48.762;9.168;2022-07-21T04:21:36;32.53;;;30.53;;
2199;SDS011;1106;48.762;9.168;2022-07-21T04:24:03;32.03;;;30.13;;
2199;SDS011;1106;48.762;9.168;2022-07-21T04:26:30;33.80;;;31.63;;
2199;SDS011;1106;48.762;9.168;2022-07-21T04:29:01;32.83;;;30.73;;
2199;SDS011;1106;48.762;9.168;2022-07-21T04:31:28;31.50;;;29.40;;
2199;SDS011;1106;48.762;9.168;2022-07-21T04:33:55;32.77;;;30.67;;
2199;SDS011;1106;48.762;9.168;2022-07-21T04:36:22;30.80;;;28.97;;
2199;SDS011;1106;48.762;9.168;2022-07-21T04:38:49;31.00;;;29.10;;
2199;SDS011;1106;48.762;9.168;2022-07-21T04:41:16;33.53;;;31.30;;
2199;SDS011;1106;48.762;9.168;2022-07-21T04:43:43;32.10;;;30.00;;
2199;SDS011;1106;48.762;9.168;2022-07-21T04:46:11;30.90;;;28.90;;
2199;SDS011;1106;48.762;9.168;2022-07-21T04:48:38;31.35;;;29.20;;
2199;SDS011;1106;48.762;9.168;2022-07-21T04:51:05;32.67;;;30.10;;
2199;SDS011;1106;48.762;9.168;2022-07-21T04:53:32;32.93;;;30.87;;
2199;SDS011;1106;48.762;9.168;2022-07-21T04:55:59;29.48;;;27.27;;
2199;SDS011;1106;48.762;9.168;2022-07-21T04:58:26;31.53;;;29.53;;
2199;SDS011;1106;48.762;9.168;2022-07-21T05:00:53;31.33;;;29.13;;
2199;SDS011;1106;48.762;9.168;2022-07-21T05:03:21;33.20;;;31.30;;
2199;SDS011;1106;48.762;9.168;2022-07-21T05:05:48;31.70;;;29.73;;
2199;SDS011;1106;48.762;9.168;2022-07-21T05:08:15;31.27;;;29.23;;
2199;SDS011;1106;48.762;9.168;2022-07-21T05:10:42;35.17;;;32.97;;
2199;SDS011;1106;48.762;9.168;2022-07-21T05:13:09;32.57;;;30.57;;
2199;SDS011;1106;48.762;9.168;2022-07-21T05:15:36;34.97;;;32.70;;
2199;SDS011;1106;48.762;9.168;2022-07-21T05:18:05;32.57;;;30.17;;
2199;SDS011;1106;48.762;9.168;2022-07-21T05:20:35;33.10;;;31.00;;
2199;SDS011;1106;48.762;9.168;2022-07-21T05:23:02;33.90;;;31.60;;
2199;SDS011;1106;48.762;9.168;2022-07-21T05:25:29;35.97;;;33.67;;
2199;SDS011;1106;48.762;9.168;2022-07-21T05:27:57;33.03;;;30.70;;
2199;SDS011;1106;48.762;9.168;2022-07-21T05:30:24;31.77;;;29.97;;
2199;SDS011;1106;48.762;9.168;2022-07-21T05:32:51;34.03;;;31.70;;
2199;SDS011;1106;48.762;9.168;2022-07-21T05:35:18;34.20;;;32.20;;
2199;SDS011;1106;48.762;9.168;2022-07-21T05:37:46;32.87;;;30.80;;
2199;SDS011;1106;48.762;9.168;2022-07-21T05:40:13;34.13;;;31.90;;
2199;SDS011;1106;48.762;9.168;2022-07-21T05:42:41;33.30;;;31.13;;
2199;SDS011;1106;48.762;9.168;2022-07-21T05:45:08;34.20;;;31.87;;
2199;SDS011;1106;48.762;9.168;2022-07-21T05:47:35;36.70;;;34.30;;
2199;SDS011;1106;48.762;9.168;2022-07-21T05:50:02;34.60;;;32.40;;
2199;SDS011;1106;48.762;9.168;2022-07-21T05:52:30;38.60;;;36.10;;
2199;SDS011;1106;48.762;9.168;2022-07-21T05:54:58;37.83;;;34.90;;
2199;SDS011;1106;48.762;9.168;2022-07-21T05:57:25;35.40;;;33.30;;
2199;SDS011;1106;48.762;9.168;2022-07-21T05:59:52;36.27;;;33.97;;
2199;SDS011;1106;48.762;9.168;2022-07-21T06:02:19;39.70;;;37.10;;
2199;SDS011;1106;48.762;9.168;2022-07-21T06:04:46;36.33;;;34.03;;
2199;SDS011;1106;48.762;9.168;2022-07-21T06:07:13;36.67;;;34.13;;
2199;SDS011;1106;48.762;9.168;2022-07-21T06:09:40;39.17;;;36.60;;
2199;SDS011;1106;48.762;9.168;2022-07-21T06:12:09;41.53;;;39.13;;
2199;SDS011;1106;48.762;9.168;2022-07-21T06:14:36;40.60;;;37.93;;
2199;SDS011;1106;48.762;9.168;2022-07-21T06:17:03;36.93;;;34.70;;
2199;SDS011;1106;48.762;9.168;2022-07-21T06:19:30;40.83;;;37.90;;
2199;SDS011;1106;48.762;9.168;2022-07-21T06:21:57;42.00;;;39.80;;
2199;SDS011;1106;48.762;9.168;2022-07-21T06:24:27;41.63;;;38.70;;
2199;SDS011;1106;48.762;9.168;2022-07-21T06:26:54;37.17;;;34.93;;
2199;SDS011;1106;48.762;9.168;2022-07-21T06:29:23;37.67;;;35.30;;
2199;SDS011;1106;48.762;9.168;2022-07-21T06:31:50;40.73;;;38.40;;
2199;SDS011;1106;48.762;9.168;2022-07-21T06:34:17;40.10;;;37.53;;
2199;SDS011;1106;48.762;9.168;2022-07-21T06:36:45;38.83;;;36.13;;
2199;SDS011;1106;48.762;9.168;2022-07-21T06:39:12;38.30;;;35.40;;
2199;SDS011;1106;48.762;9.168;2022-07-21T06:41:38;38.47;;;36.17;;
2199;SDS011;1106;48.762;9.168;2022-07-21T06:44:06;40.53;;;38.03;;
2199;SDS011;1106;48.762;9.168;2022-07-21T06:46:35;41.13;;;38.67;;
2199;SDS011;1106;48.762;9.168;2022-07-21T06:49:02;37.17;;;34.97;;
2199;SDS011;1106;48.762;9.168;2022-07-21T06:51:29;42.77;;;39.90;;
2199;SDS011;1106;48.762;9.168;2022-07-21T06:53:56;40.87;;;38.60;;
2199;SDS011;1106;48.762;9.168;2022-07-21T06:56:23;40.00;;;37.33;;
2199;SDS011;1106;48.762;9.168;2022-07-21T06:58:50;45.60;;;42.97;;
2199;SDS011;1106;48.762;9.168;2022-07-21T07:01:17;42.33;;;39.40;;
2199;SDS011;1106;48.762;9.168;2022-07-21T07:03:45;39.73;;;37.03;;
2199;SDS011;1106;48.762;9.168;2022-07-21T07:06:12;39.87;;;37.50;;
2199;SDS011;1106;48.762;9.168;2022-07-21T07:08:39;38.90;;;36.60;;
2199;SDS011;1106;48.762;9.168;2022-07-21T07:11:06;41.67;;;38.77;;
2199;SDS011;1106;48.762;9.168;2022-07-21T07:13:33;44.03;;;41.50;;
2199;SDS011;1106;48.762;9.168;2022-07-21T07:16:00;38.40;;;35.63;;
2199;SDS011;1106;48.762;9.168;2022-07-21T07:18:27;39.50;;;37.00;;
2199;SDS011;1106;48.762;9.168;2022-07-21T07:20:55;39.50;;;36.90;;
2199;SDS011;1106;48.762;9.168;2022-07-21T07:23:23;41.87;;;38.87;;
2199;SDS011;1106;48.762;9.168;2022-07-21T07:25:50;40.60;;;38.10;;
2199;SDS011;1106;48.762;9.168;2022-07-21T07:28:16;39.50;;;36.60;;
2199;SDS011;1106;48.762;9.168;2022-07-21T07:30:43;38.13;;;35.80;;
2199;SDS011;1106;48.762;9.168;2022-07-21T07:33:10;44.07;;;41.00;;
2199;SDS011;1106;48.762;9.168;2022-07-21T07:35:37;40.73;;;38.13;;
2199;SDS011;1106;48.762;9.168;2022-07-21T07:38:06;45.07;;;42.20;;
2199;SDS011;1106;48.762;9.168;2022-07-21T07:40:33;42.50;;;40.00;;
2199;SDS011;1106;48.762;9.168;2022-07-21T07:43:01;41.50;;;39.13;;
2199;SDS011;1106;48.762;9.168;2022-07-21T07:45:28;44.47;;;41.50;;
2199;SDS011;1106;48.762;9.168;2022-07-21T07:47:55;41.53;;;38.80;;
2199;SDS011;1106;48.762;9.168;2022-07-21T07:50:22;38.00;;;35.63;;
2199;SDS011;1106;48.762;9.168;2022-07-21T07:52:49;39.73;;;37.30;;
2199;SDS011;1106;48.762;9.168;2022-07-21T07:55:18;37.83;;;35.53;;
2199;SDS011;1106;48.762;9.168;2022-07-21T07:57:45;38.87;;;36.10;;
2199;SDS011;1106;48.762;9.168;2022-07-21T08:00:13;39.00;;;36.43;;
2199;SDS011;1106;48.762;9.168;2022-07-21T08:02:41;42.10;;;39.40;;
2199;SDS011;1106;48.762;9.168;2022-07-21T08:05:09;40.10;;;37.47;;
2199;SDS011;1106;48.762;9.168;2022-07-21T08:07:36;42.57;;;39.47;;
2199;SDS011;1106;48.762;9.168;2022-07-21T08:10:04;42.57;;;39.77;;
2199;SDS011;1106;48.762;9.168;2022-07-21T08:12:33;39.33;;;36.73;;
2199;SDS011;1106;48.762;9.168;2022-07-21T08:15:00;38.73;;;36.23;;
2199;SDS011;1106;48.762;9.168;2022-07-21T08:17:27;43.60;;;40.90;;
2199;SDS011;1106;48.762;9.168;2022-07-21T08:19:54;37.57;;;35.17;;
2199;SDS011;1106;48.762;9.168;2022-07-21T08:22:21;37.77;;;35.33;;
2199;SDS011;1106;48.762;9.168;2022-07-21T08:24:48;40.23;;;37.73;;
2199;SDS011;1106;48.762;9.168;2022-07-21T08:27:15;35.87;;;33.67;;
2199;SDS011;1106;48.762;9.168;2022-07-21T08:29:43;37.13;;;34.73;;
2199;SDS011;1106;48.762;9.168;2022-07-21T08:32:11;37.67;;;35.50;;
2199;SDS011;1106;48.762;9.168;2022-07-21T08:34:38;43.97;;;40.50;;
2199;SDS011;1106;48.762;9.168;2022-07-21T08:37:05;39.13;;;36.20;;
2199;SDS011;1106;48.762;9.168;2022-07-21T08:39:32;42.43;;;39.90;;
2199;SDS011;1106;48.762;9.168;2022-07-21T08:41:59;39.90;;;36.93;;
2199;SDS011;1106;48.762;9.168;2022-07-21T08:44:27;37.33;;;34.83;;
2199;SDS011;1106;48.762;9.168;2022-07-21T08:46:55;40.10;;;37.33;;
2199;SDS011;1106;48.762;9.168;2022-07-21T08:49:23;41.37;;;38.30;;
2199;SDS011;1106;48.762;9.168;2022-07-21T08:51:50;36.47;;;34.10;;
2199;SDS011;1106;48.762;9.168;2022-07-21T08:54:19;38.77;;;36.23;;
2199;SDS011;1106;48.762;9.168;2022-07-21T08:56:47;39.30;;;36.80;;
2199;SDS011;1106;48.762;9.168;2022-07-21T08:59:14;37.90;;;35.43;;
2199;SDS011;1106;48.762;9.168;2022-07-21T09:01:41;41.40;;;38.63;;
2199;SDS011;1106;48.762;9.168;2022-07-21T09:04:25;41.10;;;38.60;;
2199;SDS011;1106;48.762;9.168;2022-07-21T09:06:55;41.13;;;38.53;;
2199;SDS011;1106;48.762;9.168;2022-07-21T09:09:23;40.33;;;37.93;;
2199;SDS011;1106;48.762;9.168;2022-07-21T09:11:50;36.87;;;34.60;;
2199;SDS011;1106;48.762;9.168;2022-07-21T09:14:19;39.40;;;37.03;;
2199;SDS011;1106;48.762;9.168;2022-07-21T09:16:48;40.07;;;37.60;;
2199;SDS011;1106;48.762;9.168;2022-07-21T09:19:17;35.87;;;33.60;;
2199;SDS011;1106;48.762;9.168;2022-07-21T09:21:48;40.03;;;36.80;;
2199;SDS011;1106;48.762;9.168;2022-07-21T09:24:17;38.80;;;36.50;;
2199;SDS011;1106;48.762;9.168;2022-07-21T09:26:59;39.40;;;36.60;;
2199;SDS011;1106;48.762;9.168;2022-07-21T09:29:45;35.77;;;33.60;;
2199;SDS011;1106;48.762;9.168;2022-07-21T09:32:20;40.50;;;38.00;;
2199;SDS011;1106;48.762;9.168;2022-07-21T09:34:50;38.83;;;36.63;;
2199;SDS011;1106;48.762;9.168;2022-07-21T09:37:20;37.63;;;35.03;;
2199;SDS011;1106;48.762;9.168;2022-07-21T09:39:49;37.90;;;35.33;;
2199;SDS011;1106;48.762;9.168;2022-07-21T09:42:19;36.83;;;34.63;;
2199;SDS011;1106;48.762;9.168;2022-07-21T09:44:49;41.20;;;38.60;;
2199;SDS011;1106;48.762;9.168;2022-07-21T09:47:19;39.13;;;36.10;;
2199;SDS011;1106;48.762;9.168;2022-07-21T09:49:47;39.50;;;36.83;;
2199;SDS011;1106;48.762;9.168;2022-07-21T09:52:17;36.80;;;34.60;;
2199;SDS011;1106;48.762;9.168;2022-07-21T09:54:47;40.00;;;37.60;;
2199;SDS011;1106;48.762;9.168;2022-07-21T09:57:15;34.73;;;32.53;;
2199;SDS011;1106;48.762;9.168;2022-07-21T09:59:42;34.83;;;32.73;;
2199;SDS011;1106;48.762;9.168;2022-07-21T10:02:11;37.07;;;34.87;;
2199;SDS011;1106;48.762;9.168;2022-07-21T10:04:42;34.77;;;32.77;;
2199;SDS011;1106;48.762;9.168;2022-07-21T10:07:12;39.03;;;36.47;;
2199;SDS011;1106;48.762;9.168;2022-07-21T10:09:41;35.53;;;33.33;;
2199;SDS011;1106;48.762;9.168;2022-07-21T10:12:09;37.13;;;34.67;;
2199;SDS011;1106;48.762;9.168;2022-07-21T10:14:36;36.77;;;34.50;;
2199;SDS011;1106;48.762;9.168;2022-07-21T10:17:04;39.67;;;37.07;;
2199;SDS011;1106;48.762;9.168;2022-07-21T10:19:32;39.67;;;37.37;;
2199;SDS011;1106;48.762;9.168;2022-07-21T10:22:09;35.67;;;33.37;;
2199;SDS011;1106;48.762;9.168;2022-07-21T10:24:49;35.17;;;32.87;;
2199;SDS011;1106;48.762;9.168;2022-07-21T10:27:17;38.23;;;36.03;;
2199;SDS011;1106;48.762;9.168;2022-07-21T10:29:57;37.67;;;35.47;;
2199;SDS011;1106;48.762;9.168;2022-07-21T10:32:27;39.77;;;37.47;;
2199;SDS011;1106;48.762;9.168;2022-07-21T10:34:57;36.00;;;33.80;;
2199;SDS011;1106;48.762;9.168;2022-07-21T10:49:06;35.50;;;33.30;;
2199;SDS011;1106;48.762;9.168;2022-07-21T10:51:35;39.73;;;37.53;;
2199;SDS011;1106;48.762;9.168;2022-07-21T10:54:15;34.00;;;31.93;;
2199;SDS011;1106;48.762;9.168;2022-07-21T10:56:47;35.13;;;33.03;;
2199;SDS011;1106;48.762;9.168;2022-07-21T10:59:14;36.70;;;34.43;;
2199;SDS011;1106;48.762;9.168;2022-07-21T11:01:41;35.07;;;32.97;;
2199;SDS011;1106;48.762;9.168;2022-07-21T11:04:09;38.80;;;36.50;;
2199;SDS011;1106;48.762;9.168;2022-07-21T11:06:38;36.93;;;34.77;;
2199;SDS011;1106;48.762;9.168;2022-07-21T11:09:09;35.83;;;33.70;;
2199;SDS011;1106;48.762;9.168;2022-07-21T11:11:38;33.70;;;31.70;;
2199;SDS011;1106;48.762;9.168;2022-07-21T11:14:33;38.10;;;35.93;;
2199;SDS011;1106;48.762;9.168;2022-07-21T11:17:01;34.87;;;32.77;;
2199;SDS011;1106;48.762;9.168;2022-07-21T11:19:29;33.67;;;31.77;;
2199;SDS011;1106;48.762;9.168;2022-07-21T11:21:59;36.20;;;34.30;;
2199;SDS011;1106;48.762;9.168;2022-07-21T11:24:29;35.33;;;33.30;;
2199;SDS011;1106;48.762;9.168;2022-07-21T11:26:58;35.63;;;33.43;;
2199;SDS011;1106;48.762;9.168;2022-07-21T11:29:28;33.50;;;31.60;;
2199;SDS011;1106;48.762;9.168;2022-07-21T11:31:56;33.07;;;31.17;;
2199;SDS011;1106;48.762;9.168;2022-07-21T11:34:27;34.77;;;32.77;;
2199;SDS011;1106;48.762;9.168;2022-07-21T11:37:03;36.17;;;34.07;;
2199;SDS011;1106;48.762;9.168;2022-07-21T11:39:30;37.40;;;35.30;;
2199;SDS011;1106;48.762;9.168;2022-07-21T11:42:01;36.13;;;34.03;;
2199;SDS011;1106;48.762;9.168;2022-07-21T11:44:30;38.60;;;36.50;;
2199;SDS011;1106;48.762;9.168;2022-07-21T11:46:58;35.43;;;33.43;;
2199;SDS011;1106;48.762;9.168;2022-07-21T11:49:27;37.17;;;34.97;;
2199;SDS011;1106;48.762;9.168;2022-07-21T11:51:57;38.67;;;36.47;;
2199;SDS011;1106;48.762;9.168;2022-07-21T11:54:27;34.53;;;32.50;;
2199;SDS011;1106;48.762;9.168;2022-07-21T11:56:56;39.07;;;36.83;;
2199;SDS011;1106;48.762;9.168;2022-07-21T11:59:25;36.23;;;34.03;;
2199;SDS011;1106;48.762;9.168;2022-07-21T12:01:56;40.23;;;37.83;;
2199;SDS011;1106;48.762;9.168;2022-07-21T12:04:32;34.30;;;32.20;;
2199;SDS011;1106;48.762;9.168;2022-07-21T12:07:05;35.60;;;33.37;;
2199;SDS011;1106;48.762;9.168;2022-07-21T12:09:36;37.20;;;34.97;;
2199;SDS011;1106;48.762;9.168;2022-07-21T12:12:04;37.30;;;35.00;;
2199;SDS011;1106;48.762;9.168;2022-07-21T12:14:40;34.83;;;32.63;;
2199;SDS011;1106;48.762;9.168;2022-07-21T12:17:09;38.00;;;35.80;;
2199;SDS011;1106;48.762;9.168;2022-07-21T12:19:37;36.30;;;34.10;;
2199;SDS011;1106;48.762;9.168;2022-07-21T12:22:05;34.47;;;32.27;;
2199;SDS011;1106;48.762;9.168;2022-07-21T12:24:48;35.50;;;33.40;;
2199;SDS011;1106;48.762;9.168;2022-07-21T12:27:23;36.90;;;34.40;;
2199;SDS011;1106;48.762;9.168;2022-07-21T12:29:50;37.23;;;34.93;;
2199;SDS011;1106;48.762;9.168;2022-07-21T12:35:16;38.17;;;35.97;;
2199;SDS011;1106;48.762;9.168;2022-07-21T12:37:54;36.37;;;34.13;;
2199;SDS011;1106;48.762;9.168;2022-07-21T12:40:26;37.17;;;35.07;;
2199;SDS011;1106;48.762;9.168;2022-07-21T12:43:08;38.83;;;36.33;;
2199;SDS011;1106;48.762;9.168;2022-07-21T12:45:44;35.70;;;33.50;;
2199;SDS011;1106;48.762;9.168;2022-07-21T12:48:22;38.50;;;36.27;;
2199;SDS011;1106;48.762;9.168;2022-07-21T12:51:01;36.80;;;34.60;;
2199;SDS011;1106;48.762;9.168;2022-07-21T12:53:35;35.40;;;33.30;;
2199;SDS011;1106;48.762;9.168;2022-07-21T12:56:04;35.93;;;33.73;;
2199;SDS011;1106;48.762;9.168;2022-07-21T12:58:31;38.33;;;36.03;;
2199;SDS011;1106;48.762;9.168;2022-07-21T13:00:58;42.93;;;40.63;;
2199;SDS011;1106;48.762;9.168;2022-07-21T13:03:28;41.07;;;38.87;;
2199;SDS011;1106;48.762;9.168;2022-07-21T13:05:56;40.63;;;38.13;;
2199;SDS011;1106;48.762;9.168;2022-07-21T13:08:23;38.63;;;36.07;;
2199;SDS011;1106;48.762;9.168;2022-07-21T13:10:53;37.10;;;34.90;;
2199;SDS011;1106;48.762;9.168;2022-07-21T13:13:21;38.53;;;36.20;;
2199;SDS011;1106;48.762;9.168;2022-07-21T13:15:49;41.20;;;38.90;;
2199;SDS011;1106;48.762;9.168;2022-07-21T13:18:16;35.57;;;33.47;;
2199;SDS011;1106;48.762;9.168;2022-07-21T13:20:44;42.23;;;39.73;;
2199;SDS011;1106;48.762;9.168;2022-07-21T13:23:12;37.80;;;35.30;;
2199;SDS011;1106;48.762;9.168;2022-07-21T13:25:39;38.13;;;35.93;;
2199;SDS011;1106;48.762;9.168;2022-07-21T13:28:06;36.70;;;34.60;;
2199;SDS011;1106;48.762;9.168;2022-07-21T13:30:33;42.73;;;40.33;;
2199;SDS011;1106;48.762;9.168;2022-07-21T13:33:00;40.50;;;38.07;;
2199;SDS011;1106;48.762;9.168;2022-07-21T13:35:28;39.37;;;36.90;;
2199;SDS011;1106;48.762;9.168;2022-07-21T13:37:57;37.47;;;35.17;;
2199;SDS011;1106;48.762;9.168;2022-07-21T13:40:25;37.63;;;35.10;;
2199;SDS011;1106;48.762;9.168;2022-07-21T13:42:53;42.43;;;40.33;;
2199;SDS011;1106;48.762;9.168;2022-07-21T13:45:20;41.57;;;38.97;;
2199;SDS011;1106;48.762;9.168;2022-07-21T13:47:47;39.87;;;37.37;;
2199;SDS011;1106;48.762;9.168;2022-07-21T13:50:14;37.17;;;34.97;;
2199;SDS011;1106;48.762;9.168;2022-07-21T13:52:41;38.97;;;36.60;;
2199;SDS011;1106;48.762;9.168;2022-07-21T13:55:09;39.80;;;37.27;;
2199;SDS011;1106;48.762;9.168;2022-07-21T13:57:36;36.10;;;33.73;;
2199;SDS011;1106;48.762;9.168;2022-07-21T14:00:04;38.03;;;35.60;;
2199;SDS011;1106;48.762;9.168;2022-07-21T14:02:32;39.37;;;36.77;;
2199;SDS011;1106;48.762;9.168;2022-07-21T14:04:59;39.00;;;36.60;;
2199;SDS011;1106;48.762;9.168;2022-07-21T14:07:26;36.60;;;34.30;;
2199;SDS011;1106;48.762;9.168;2022-07-21T14:09:53;35.80;;;33.60;;
2199;SDS011;1106;48.762;9.168;2022-07-21T14:12:22;36.57;;;34.33;;
2199;SDS011;1106;48.762;9.168;2022-07-21T14:14:49;37.23;;;34.93;;
2199;SDS011;1106;48.762;9.168;2022-07-21T14:17:16;39.00;;;36.60;;
2199;SDS011;1106;48.762;9.168;2022-07-21T14:19:44;35.83;;;33.77;;
2199;SDS011;1106;48.762;9.168;2022-07-21T14:22:12;37.93;;;35.60;;
2199;SDS011;1106;48.762;9.168;2022-07-21T14:24:39;35.87;;;33.63;;
2199;SDS011;1106;48.762;9.168;2022-07-21T14:27:25;38.33;;;35.93;;
2199;SDS011;1106;48.762;9.168;2022-07-21T14:29:52;39.37;;;36.90;;
2199;SDS011;1106;48.762;9.168;2022-07-21T14:32:19;35.97;;;33.77;;
2199;SDS011;1106;48.762;9.168;2022-07-21T14:34:47;38.80;;;36.50;;
2199;SDS011;1106;48.762;9.168;2022-07-21T14:37:15;38.20;;;35.87;;
2199;SDS011;1106;48.762;9.168;2022-07-21T14:39:43;39.93;;;37.70;;
2199;SDS011;1106;48.762;9.168;2022-07-21T14:42:11;37.90;;;35.40;;
2199;SDS011;1106;48.762;9.168;2022-07-21T14:44:42;34.57;;;32.33;;
2199;SDS011;1106;48.762;9.168;2022-07-21T14:47:09;37.97;;;35.77;;
2199;SDS011;1106;48.762;9.168;2022-07-21T14:49:36;35.73;;;33.17;;
2199;SDS011;1106;48.762;9.168;2022-07-21T14:52:04;37.00;;;34.80;;
2199;SDS011;1106;48.762;9.168;2022-07-21T14:54:31;33.77;;;31.67;;
2199;SDS011;1106;48.762;9.168;2022-07-21T14:56:58;34.30;;;32.30;;
2199;SDS011;1106;48.762;9.168;2022-07-21T14:59:26;34.63;;;32.37;;
2199;SDS011;1106;48.762;9.168;2022-07-21T15:01:54;33.10;;;31.07;;
2199;SDS011;1106;48.762;9.168;2022-07-21T15:04:22;33.97;;;32.00;;
2199;SDS011;1106;48.762;9.168;2022-07-21T15:06:50;34.93;;;32.70;;
2199;SDS011;1106;48.762;9.168;2022-07-21T15:09:17;39.80;;;37.70;;